createdAt,value
2022-10-09T04:30:55.378Z,6.52
2022-10-09T04:31:55.353Z,6.46
2022-10-09T04:32:55.282Z,6.33
2022-10-09T04:33:55.306Z,6.37
2022-10-09T04:34:55.266Z,6.49
2022-10-09T04:35:55.244Z,6.36
2022-10-09T04:36:55.255Z,6.36
2022-10-09T04:37:55.218Z,6.38
2022-10-09T04:38:55.244Z,6.46
2022-10-09T04:39:55.202Z,6.38
2022-10-09T04:40:55.217Z,6.31
2022-10-09T04:41:55.243Z,6.31
2022-10-09T04:42:55.171Z,6.28
2022-10-09T04:43:55.162Z,6.28
2022-10-09T04:44:55.154Z,6.28
2022-10-09T04:46:02.871Z,6.30
2022-10-09T04:46:55.152Z,6.30
2022-10-09T04:47:55.110Z,6.30
2022-10-09T04:48:55.106Z,6.30
2022-10-09T04:49:55.106Z,6.22
2022-10-09T04:50:55.108Z,6.27
2022-10-09T04:51:55.068Z,6.19
2022-10-09T04:52:55.055Z,6.21
2022-10-09T04:53:58.403Z,6.21
2022-10-09T04:54:56.030Z,6.22
2022-10-09T04:55:55.026Z,6.28
2022-10-09T04:56:55.034Z,6.25
2022-10-09T04:57:55.003Z,6.21
2022-10-09T04:58:55.020Z,6.31
2022-10-09T04:59:54.996Z,6.19
2022-10-09T05:00:55.091Z,6.15
2022-10-09T05:01:55.032Z,6.25
2022-10-09T05:02:54.949Z,6.15
2022-10-09T05:03:54.935Z,6.14
2022-10-09T05:04:54.965Z,6.30
2022-10-09T05:05:54.919Z,6.17
2022-10-09T05:06:54.907Z,6.21
2022-10-09T05:07:54.895Z,6.18
2022-10-09T05:08:54.888Z,6.17
2022-10-09T05:09:54.892Z,6.14
2022-10-09T05:10:54.891Z,6.19
2022-10-09T05:11:54.849Z,6.11
2022-10-09T05:12:54.840Z,6.19
2022-10-09T05:13:54.836Z,6.14
2022-10-09T05:14:54.824Z,6.15
2022-10-09T05:15:54.817Z,6.12
2022-10-09T05:17:13.151Z,6.17
2022-10-09T05:17:55.809Z,6.15
2022-10-09T05:18:54.779Z,6.15
2022-10-09T05:19:54.763Z,6.06
2022-10-09T05:20:54.779Z,6.11
2022-10-09T05:21:54.748Z,6.08
2022-10-09T05:22:54.740Z,6.14
2022-10-09T05:23:54.744Z,6.12
2022-10-09T05:24:54.718Z,6.18
2022-10-09T05:25:54.703Z,6.03
2022-10-09T05:26:54.686Z,6.08
2022-10-09T05:27:54.682Z,6.08
2022-10-09T05:28:54.682Z,6.06
2022-10-09T05:29:54.660Z,6.06
2022-10-09T05:30:54.667Z,6.08
2022-10-09T05:31:54.670Z,6.08
2022-10-09T05:32:54.625Z,5.96
2022-10-09T05:33:54.654Z,6.11
2022-10-09T05:34:54.602Z,6.09
2022-10-09T05:35:54.592Z,6.06
2022-10-09T05:36:54.598Z,6.11
2022-10-09T05:37:54.583Z,6.11
2022-10-09T05:38:54.583Z,6.11
2022-10-09T05:39:54.567Z,5.99
2022-10-09T05:40:54.542Z,6.11
2022-10-09T05:41:54.529Z,6.06
2022-10-09T05:42:54.539Z,6.04
2022-10-09T05:43:54.548Z,6.06
2022-10-09T05:44:54.502Z,6.06
2022-10-09T05:45:54.544Z,6.01
2022-10-09T05:46:54.477Z,6.04
2022-10-09T05:47:54.459Z,6.03
2022-10-09T05:48:54.453Z,6.12
2022-10-09T05:49:54.481Z,6.06
2022-10-09T05:50:54.443Z,6.06
2022-10-09T05:51:54.422Z,6.06
2022-10-09T05:52:54.431Z,6.08
2022-10-09T05:53:54.401Z,6.12
2022-10-09T05:54:54.415Z,6.12
2022-10-09T05:55:54.373Z,6.12
2022-10-09T05:56:54.363Z,6.04
2022-10-09T05:57:54.370Z,6.09
2022-10-09T05:58:54.365Z,6.08
2022-10-09T05:59:54.333Z,6.17
2022-10-09T06:00:54.401Z,6.06
2022-10-09T06:01:54.412Z,6.06
2022-10-09T06:02:54.408Z,6.09
2022-10-09T06:03:54.291Z,6.08
2022-10-09T06:04:54.313Z,6.15
2022-10-09T06:05:54.285Z,6.12
2022-10-09T06:06:54.262Z,6.03
2022-10-09T06:07:54.245Z,6.06
2022-10-09T06:08:54.258Z,6.12
2022-10-09T06:09:54.223Z,6.04
2022-10-09T06:10:54.243Z,6.03
2022-10-09T06:11:54.233Z,6.01
2022-10-09T06:12:54.214Z,6.06
2022-10-09T06:13:54.182Z,6.03
2022-10-09T06:14:54.186Z,6.04
2022-10-09T06:15:54.160Z,6.06
2022-10-09T06:16:54.253Z,6.08
2022-10-09T06:17:54.181Z,6.17
2022-10-09T06:18:54.139Z,6.12
2022-10-09T06:19:54.147Z,6.09
2022-10-09T06:20:54.108Z,6.06
2022-10-09T06:21:54.115Z,6.04
2022-10-09T06:22:54.109Z,5.99
2022-10-09T06:23:54.074Z,6.00
2022-10-09T06:24:54.072Z,5.89
2022-10-09T06:25:54.055Z,6.00
2022-10-09T06:26:54.058Z,5.96
2022-10-09T06:27:54.030Z,6.00
2022-10-09T06:28:54.023Z,6.03
2022-10-09T06:29:54.010Z,6.01
2022-10-09T06:30:54.057Z,6.06
2022-10-09T06:31:53.990Z,6.08
2022-10-09T06:32:53.982Z,5.93
2022-10-09T06:33:53.983Z,5.94
2022-10-09T06:34:53.956Z,5.99
2022-10-09T06:35:59.523Z,5.99
2022-10-09T06:36:54.940Z,5.96
2022-10-09T06:37:53.960Z,6.06
2022-10-09T06:38:53.929Z,6.06
2022-10-09T06:39:53.905Z,5.93
2022-10-09T06:40:53.906Z,5.96
2022-10-09T06:41:53.910Z,6.08
2022-10-09T06:42:53.874Z,5.97
2022-10-09T06:43:53.860Z,6.01
2022-10-09T06:44:53.852Z,6.06
2022-10-09T06:45:53.906Z,5.91
2022-10-09T06:46:53.827Z,6.06
2022-10-09T06:47:53.837Z,6.06
2022-10-09T06:48:53.808Z,6.03
2022-10-09T06:49:53.795Z,6.14
2022-10-09T06:50:53.801Z,6.17
2022-10-09T06:51:53.779Z,6.31
2022-10-09T06:52:53.773Z,6.31
2022-10-09T06:53:53.784Z,6.19
2022-10-09T06:54:53.740Z,6.25
2022-10-09T06:55:53.727Z,6.28
2022-10-09T06:56:53.711Z,6.30
2022-10-09T06:57:53.706Z,6.41
2022-10-09T06:58:53.738Z,6.36
2022-10-09T06:59:53.687Z,6.41
2022-10-09T07:00:53.674Z,6.41
2022-10-09T07:01:53.759Z,6.34
2022-10-09T07:02:54.043Z,6.37
2022-10-09T07:03:53.648Z,6.54
2022-10-09T07:04:53.635Z,6.46
2022-10-09T07:05:53.620Z,6.59
2022-10-09T07:06:53.629Z,6.71
2022-10-09T07:07:53.610Z,6.74
2022-10-09T07:08:53.589Z,6.87
2022-10-09T07:09:53.601Z,7.02
2022-10-09T07:10:53.565Z,7.10
2022-10-09T07:11:53.590Z,7.20
2022-10-09T07:12:53.545Z,7.42
2022-10-09T07:13:53.532Z,7.63
2022-10-09T07:14:53.530Z,7.77
2022-10-09T07:15:53.549Z,8.00
2022-10-09T07:16:53.523Z,8.16
2022-10-09T07:17:53.490Z,8.36
2022-10-09T07:18:53.493Z,8.45
2022-10-09T07:19:53.471Z,8.66
2022-10-09T07:20:53.464Z,8.71
2022-10-09T07:21:53.479Z,8.91
2022-10-09T07:22:53.455Z,9.04
2022-10-09T07:23:53.429Z,9.10
2022-10-09T07:24:53.417Z,9.33
2022-10-09T07:25:53.460Z,9.47
2022-10-09T07:26:53.395Z,9.56
2022-10-09T07:27:53.385Z,9.76
2022-10-09T07:28:53.380Z,9.84
2022-10-09T07:29:53.362Z,9.94
2022-10-09T07:30:53.444Z,10.08
2022-10-09T07:31:53.391Z,10.17
2022-10-09T07:32:53.333Z,10.22
2022-10-09T07:33:53.315Z,10.36
2022-10-09T07:34:53.305Z,10.47
2022-10-09T07:35:53.297Z,10.67
2022-10-09T07:36:53.294Z,10.71
2022-10-09T07:37:53.307Z,10.74
2022-10-09T07:38:53.287Z,10.82
2022-10-09T07:39:53.255Z,10.67
2022-10-09T07:40:53.261Z,10.79
2022-10-09T07:41:53.256Z,11.02
2022-10-09T07:42:53.234Z,11.15
2022-10-09T07:43:53.225Z,11.14
2022-10-09T07:44:53.232Z,11.17
2022-10-09T07:45:53.243Z,11.17
2022-10-09T07:46:53.177Z,11.37
2022-10-09T07:47:53.172Z,11.37
2022-10-09T07:48:53.159Z,11.36
2022-10-09T07:49:53.174Z,11.24
2022-10-09T07:50:53.132Z,11.35
2022-10-09T07:51:53.129Z,11.25
2022-10-09T07:52:53.136Z,11.28
2022-10-09T07:53:53.109Z,11.27
2022-10-09T07:54:53.092Z,11.46
2022-10-09T07:55:53.093Z,11.54
2022-10-09T07:56:53.085Z,11.57
2022-10-09T07:57:53.099Z,11.64
2022-10-09T07:58:53.047Z,11.64
2022-10-09T07:59:53.041Z,11.85
2022-10-09T08:00:53.024Z,12.01
2022-10-09T08:01:53.061Z,12.16
2022-10-09T08:02:53.621Z,12.29
2022-10-09T08:03:53.033Z,12.23
2022-10-09T08:04:52.990Z,12.38
2022-10-09T08:05:52.979Z,12.35
2022-10-09T08:06:52.981Z,12.53
2022-10-09T08:07:52.974Z,12.52
2022-10-09T08:08:52.942Z,12.67
2022-10-09T08:09:52.958Z,12.65
2022-10-09T08:10:52.931Z,12.87
2022-10-09T08:11:52.913Z,12.78
2022-10-09T08:12:52.896Z,12.65
2022-10-09T08:13:52.903Z,12.57
2022-10-09T08:14:52.879Z,12.68
2022-10-09T08:15:53.014Z,12.77
2022-10-09T08:16:52.878Z,12.70
2022-10-09T08:17:52.869Z,12.83
2022-10-09T08:18:52.850Z,12.92
2022-10-09T08:19:52.856Z,12.90
2022-10-09T08:20:52.818Z,13.04
2022-10-09T08:21:52.803Z,12.93
2022-10-09T08:22:52.954Z,12.74
2022-10-09T08:23:52.803Z,12.72
2022-10-09T08:24:52.770Z,12.86
2022-10-09T08:25:52.781Z,13.00
2022-10-09T08:26:52.748Z,13.15
2022-10-09T08:27:52.738Z,13.41
2022-10-09T08:28:52.884Z,13.39
2022-10-09T08:29:52.742Z,13.44
2022-10-09T08:30:52.753Z,13.51
2022-10-09T08:31:52.732Z,13.54
2022-10-09T08:32:52.679Z,13.69
2022-10-09T08:33:52.671Z,13.67
2022-10-09T08:34:52.689Z,13.62
2022-10-09T08:35:52.657Z,13.73
2022-10-09T08:36:52.659Z,13.71
2022-10-09T08:37:52.632Z,13.84
2022-10-09T08:38:52.632Z,13.96
2022-10-09T08:39:52.635Z,14.15
2022-10-09T08:40:57.448Z,14.27
2022-10-09T08:41:53.587Z,14.21
2022-10-09T08:42:52.574Z,14.32
2022-10-09T08:43:52.566Z,14.09
2022-10-09T08:44:52.570Z,14.14
2022-10-09T08:45:52.572Z,14.20
2022-10-09T08:46:52.681Z,14.27
2022-10-09T08:47:52.519Z,14.22
2022-10-09T08:48:52.515Z,14.35
2022-10-09T08:49:52.497Z,14.40
2022-10-09T08:50:52.483Z,14.47
2022-10-09T08:51:52.493Z,14.77
2022-10-09T08:52:52.784Z,14.88
2022-10-09T08:53:52.450Z,14.83
2022-10-09T08:54:52.440Z,14.68
2022-10-09T08:55:52.428Z,14.72
2022-10-09T08:56:52.454Z,14.78
2022-10-09T08:57:52.416Z,14.88
2022-10-09T08:58:52.398Z,14.98
2022-10-09T08:59:52.386Z,14.94
2022-10-09T09:00:52.377Z,14.91
2022-10-09T09:01:52.440Z,14.84
2022-10-09T09:02:52.968Z,15.01
2022-10-09T09:03:52.363Z,15.09
2022-10-09T09:04:54.774Z,15.27
2022-10-09T09:05:52.341Z,15.35
2022-10-09T09:06:52.316Z,15.35
2022-10-09T09:07:52.297Z,15.25
2022-10-09T09:08:52.328Z,15.53
2022-10-09T09:09:52.280Z,15.49
2022-10-09T09:10:52.266Z,15.36
2022-10-09T09:11:52.281Z,15.60
2022-10-09T09:12:52.668Z,15.67
2022-10-09T09:13:52.258Z,15.72
2022-10-09T09:14:52.231Z,15.82
2022-10-09T09:15:52.257Z,15.87
2022-10-09T09:16:52.208Z,15.89
2022-10-09T09:17:52.228Z,15.71
2022-10-09T09:18:52.205Z,15.60
2022-10-09T09:19:52.170Z,15.51
2022-10-09T09:20:52.180Z,15.39
2022-10-09T09:21:52.172Z,15.35
2022-10-09T09:22:52.360Z,15.38
2022-10-09T09:23:52.140Z,15.32
2022-10-09T09:24:52.119Z,15.43
2022-10-09T09:25:52.126Z,15.56
2022-10-09T09:26:52.091Z,15.49
2022-10-09T09:27:52.082Z,15.25
2022-10-09T09:28:52.152Z,15.32
2022-10-09T09:29:52.069Z,15.43
2022-10-09T09:30:52.134Z,15.54
2022-10-09T09:31:52.072Z,15.65
2022-10-09T09:32:52.142Z,15.71
2022-10-09T09:33:52.050Z,15.72
2022-10-09T09:34:52.010Z,15.64
2022-10-09T09:35:52.019Z,15.54
2022-10-09T09:36:51.983Z,15.62
2022-10-09T09:37:52.014Z,15.50
2022-10-09T09:39:44.268Z,15.56
2022-10-09T09:40:35.566Z,15.57
2022-10-09T09:40:52.965Z,15.68
2022-10-09T09:41:51.940Z,15.75
2022-10-09T09:42:52.250Z,15.65
2022-10-09T09:43:51.910Z,15.60
2022-10-09T09:44:51.912Z,15.60
2022-10-09T09:45:51.893Z,15.62
2022-10-09T09:46:51.970Z,15.76
2022-10-09T09:47:52.264Z,15.83
2022-10-09T09:48:51.854Z,15.94
2022-10-09T09:49:51.890Z,15.93
2022-10-09T09:51:05.030Z,16.14
2022-10-09T09:51:52.823Z,16.23
2022-10-09T09:52:51.822Z,16.31
2022-10-09T09:53:51.803Z,16.45
2022-10-09T09:54:51.788Z,16.48
2022-10-09T09:55:51.797Z,16.42
2022-10-09T09:57:22.105Z,16.45
2022-10-09T09:57:52.756Z,16.20
2022-10-09T09:58:51.764Z,16.12
2022-10-09T09:59:51.744Z,16.23
2022-10-09T10:00:51.769Z,16.42
2022-10-09T10:01:51.796Z,16.56
2022-10-09T10:02:52.247Z,16.70
2022-10-09T10:03:51.699Z,16.71
2022-10-09T10:04:51.693Z,16.91
2022-10-09T10:05:51.696Z,16.97
2022-10-09T10:06:51.661Z,17.01
2022-10-09T10:07:51.686Z,17.12
2022-10-09T10:08:51.639Z,17.18
2022-10-09T10:09:51.653Z,17.19
2022-10-09T10:10:51.631Z,17.08
2022-10-09T10:11:51.610Z,17.04
2022-10-09T10:12:52.176Z,16.93
2022-10-09T10:13:51.595Z,16.96
2022-10-09T10:14:51.609Z,16.66
2022-10-09T10:15:51.615Z,16.73
2022-10-09T10:16:51.564Z,16.73
2022-10-09T10:17:51.596Z,16.73
2022-10-09T10:18:51.544Z,16.85
2022-10-09T10:19:51.537Z,16.68
2022-10-09T10:20:51.512Z,16.73
2022-10-09T10:21:51.533Z,16.68
2022-10-09T10:22:51.902Z,16.76
2022-10-09T10:23:51.568Z,16.88
2022-10-09T10:24:51.471Z,17.01
2022-10-09T10:25:51.468Z,16.91
2022-10-09T10:26:51.449Z,16.97
2022-10-09T10:27:51.833Z,16.93
2022-10-09T10:28:51.420Z,17.06
2022-10-09T10:29:51.427Z,17.14
2022-10-09T10:30:51.421Z,17.04
2022-10-09T10:31:51.411Z,17.31
2022-10-09T10:32:51.378Z,17.48
2022-10-09T10:33:51.365Z,17.41
2022-10-09T10:34:51.493Z,17.30
2022-10-09T10:35:51.357Z,17.34
2022-10-09T10:36:51.353Z,17.49
2022-10-09T10:37:52.003Z,17.41
2022-10-09T10:38:51.336Z,17.44
2022-10-09T10:39:51.308Z,17.33
2022-10-09T10:40:51.285Z,17.40
2022-10-09T10:41:51.291Z,17.36
2022-10-09T10:42:54.035Z,17.34
2022-10-09T10:43:51.269Z,17.30
2022-10-09T10:44:51.343Z,17.51
2022-10-09T10:45:51.235Z,17.59
2022-10-09T10:46:51.318Z,17.68
2022-10-09T10:47:52.211Z,17.68
2022-10-09T10:48:51.222Z,17.74
2022-10-09T10:49:51.193Z,17.74
2022-10-09T10:50:51.212Z,17.75
2022-10-09T10:51:51.168Z,17.87
2022-10-09T10:52:51.158Z,17.89
2022-10-09T10:53:51.168Z,17.86
2022-10-09T10:54:51.248Z,17.81
2022-10-09T10:55:51.151Z,17.79
2022-10-09T10:56:51.114Z,17.66
2022-10-09T10:57:51.602Z,17.72
2022-10-09T10:58:51.094Z,17.72
2022-10-09T10:59:51.094Z,17.77
2022-10-09T11:00:51.158Z,17.78
2022-10-09T11:01:51.086Z,17.86
2022-10-09T11:02:51.423Z,17.93
2022-10-09T11:03:51.061Z,17.96
2022-10-09T11:04:51.126Z,18.15
2022-10-09T11:05:51.052Z,18.15
2022-10-09T11:06:51.011Z,18.20
2022-10-09T11:07:51.002Z,18.23
2022-10-09T11:08:50.981Z,18.25
2022-10-09T11:09:50.998Z,18.25
2022-10-09T11:10:50.997Z,18.33
2022-10-09T11:11:50.956Z,18.25
2022-10-09T11:12:50.943Z,18.18
2022-10-09T11:13:50.939Z,18.23
2022-10-09T11:14:50.921Z,18.10
2022-10-09T11:15:50.978Z,18.11
2022-10-09T11:16:50.930Z,18.12
2022-10-09T11:17:50.901Z,18.03
2022-10-09T11:18:50.877Z,18.02
2022-10-09T11:19:50.870Z,17.81
2022-10-09T11:20:50.864Z,17.82
2022-10-09T11:21:50.880Z,17.86
2022-10-09T11:22:51.524Z,17.90
2022-10-09T11:23:50.840Z,17.81
2022-10-09T11:24:50.826Z,17.74
2022-10-09T11:25:50.822Z,17.71
2022-10-09T11:26:50.830Z,17.70
2022-10-09T11:27:50.778Z,17.66
2022-10-09T11:28:50.837Z,17.74
2022-10-09T11:29:50.759Z,17.74
2022-10-09T11:30:50.752Z,17.79
2022-10-09T11:31:50.884Z,17.86
2022-10-09T11:32:50.743Z,17.99
2022-10-09T11:33:50.739Z,18.00
2022-10-09T11:34:50.704Z,17.90
2022-10-09T11:35:50.695Z,17.90
2022-10-09T11:36:50.685Z,18.00
2022-10-09T11:37:51.127Z,18.07
2022-10-09T11:38:50.672Z,18.15
2022-10-09T11:39:50.670Z,18.07
2022-10-09T11:40:50.637Z,17.99
2022-10-09T11:41:50.672Z,17.95
2022-10-09T11:42:50.624Z,17.78
2022-10-09T11:43:50.606Z,17.89
2022-10-09T11:44:50.603Z,17.89
2022-10-09T11:45:50.676Z,17.84
2022-10-09T11:46:50.577Z,17.87
2022-10-09T11:47:50.880Z,17.93
2022-10-09T11:48:50.554Z,17.92
2022-10-09T11:49:50.545Z,17.81
2022-10-09T11:50:50.571Z,17.71
2022-10-09T11:51:50.525Z,17.77
2022-10-09T11:52:50.509Z,17.78
2022-10-09T11:53:50.497Z,17.89
2022-10-09T11:54:50.488Z,17.82
2022-10-09T11:55:50.481Z,17.87
2022-10-09T11:56:50.497Z,17.78
2022-10-09T11:57:50.883Z,17.75
2022-10-09T11:58:50.479Z,17.79
2022-10-09T11:59:50.451Z,17.64
2022-10-09T12:00:50.641Z,17.62
2022-10-09T12:01:50.427Z,17.74
2022-10-09T12:02:50.405Z,17.64
2022-10-09T12:03:50.390Z,17.62
2022-10-09T12:04:54.938Z,17.70
2022-10-09T12:05:51.364Z,17.78
2022-10-09T12:06:50.382Z,17.78
2022-10-09T12:07:50.362Z,17.75
2022-10-09T12:08:50.338Z,17.78
2022-10-09T12:09:50.326Z,17.78
2022-10-09T12:10:50.325Z,17.74
2022-10-09T12:11:50.364Z,17.78
2022-10-09T12:12:50.800Z,17.86
2022-10-09T12:13:50.319Z,17.79
2022-10-09T12:14:50.273Z,17.77
2022-10-09T12:15:50.269Z,17.75
2022-10-09T12:16:50.313Z,17.75
2022-10-09T12:17:50.253Z,17.70
2022-10-09T12:18:50.233Z,17.59
2022-10-09T12:19:50.215Z,17.59
2022-10-09T12:20:50.209Z,17.62
2022-10-09T12:21:50.197Z,17.54
2022-10-09T12:23:13.808Z,17.58
2022-10-09T12:23:51.211Z,17.62
2022-10-09T12:24:50.169Z,17.56
2022-10-09T12:25:50.161Z,17.58
2022-10-09T12:26:50.145Z,17.51
2022-10-09T12:27:50.132Z,17.41
2022-10-09T12:28:50.269Z,17.49
2022-10-09T12:29:50.123Z,17.54
2022-10-09T12:30:50.155Z,17.56
2022-10-09T12:31:50.088Z,17.62
2022-10-09T12:32:50.423Z,17.71
2022-10-09T12:33:50.076Z,17.79
2022-10-09T12:34:50.099Z,17.70
2022-10-09T12:35:50.049Z,17.72
2022-10-09T12:36:50.033Z,17.72
2022-10-09T12:37:50.025Z,17.75
2022-10-09T12:38:50.042Z,17.77
2022-10-09T12:39:50.026Z,17.63
2022-10-09T12:40:49.997Z,17.58
2022-10-09T12:41:50.002Z,17.55
2022-10-09T12:42:50.176Z,17.46
2022-10-09T12:43:49.988Z,17.58
2022-10-09T12:44:49.953Z,17.68
2022-10-09T12:45:50.036Z,17.56
2022-10-09T12:46:49.930Z,17.54
2022-10-09T12:47:49.930Z,17.51
2022-10-09T12:48:49.923Z,17.48
2022-10-09T12:49:49.896Z,17.31
2022-10-09T12:50:49.909Z,17.37
2022-10-09T12:51:52.474Z,17.23
2022-10-09T12:52:51.378Z,17.33
2022-10-09T12:53:49.876Z,17.31
2022-10-09T12:54:49.844Z,17.22
2022-10-09T12:55:49.886Z,17.22
2022-10-09T12:56:49.820Z,17.30
2022-10-09T12:57:49.818Z,17.30
2022-10-09T12:58:49.807Z,17.37
2022-10-09T12:59:49.795Z,17.44
2022-10-09T13:00:49.808Z,17.43
2022-10-09T13:01:49.940Z,17.31
2022-10-09T13:02:50.191Z,17.30
2022-10-09T13:03:49.743Z,17.31
2022-10-09T13:04:49.734Z,17.33
2022-10-09T13:05:49.739Z,17.31
2022-10-09T13:06:49.753Z,17.28
2022-10-09T13:07:49.703Z,17.31
2022-10-09T13:08:49.701Z,17.33
2022-10-09T13:09:49.695Z,17.38
2022-10-09T13:10:49.681Z,17.30
2022-10-09T13:11:49.673Z,17.23
2022-10-09T13:12:49.862Z,17.14
2022-10-09T13:13:49.654Z,17.11
2022-10-09T13:14:49.624Z,17.21
2022-10-09T13:15:49.647Z,17.19
2022-10-09T13:16:49.719Z,17.16
2022-10-09T13:17:49.881Z,17.14
2022-10-09T13:18:49.595Z,17.08
2022-10-09T13:19:49.612Z,17.08
2022-10-09T13:20:49.556Z,17.08
2022-10-09T13:21:49.562Z,17.11
2022-10-09T13:22:49.725Z,17.12
2022-10-09T13:23:49.533Z,17.08
2022-10-09T13:24:49.516Z,17.14
2022-10-09T13:25:49.524Z,17.14
2022-10-09T13:26:49.498Z,17.11
2022-10-09T13:27:49.696Z,17.14
2022-10-09T13:28:49.467Z,17.03
2022-10-09T13:29:49.455Z,17.16
2022-10-09T13:30:49.511Z,17.16
2022-10-09T13:31:49.459Z,17.07
2022-10-09T13:32:49.425Z,17.11
2022-10-09T13:33:49.432Z,17.11
2022-10-09T13:34:49.410Z,17.15
2022-10-09T13:35:49.390Z,17.14
2022-10-09T13:36:49.416Z,17.15
2022-10-09T13:37:49.663Z,17.11
2022-10-09T13:38:49.391Z,17.11
2022-10-09T13:39:49.347Z,17.12
2022-10-09T13:40:49.343Z,17.14
2022-10-09T13:41:49.342Z,17.18
2022-10-09T13:42:49.321Z,17.15
2022-10-09T13:43:49.304Z,17.01
2022-10-09T13:44:49.310Z,17.16
2022-10-09T13:45:49.350Z,17.04
2022-10-09T13:46:49.283Z,17.08
2022-10-09T13:47:49.590Z,17.00
2022-10-09T13:48:49.273Z,17.03
2022-10-09T13:49:49.277Z,16.94
2022-10-09T13:50:49.256Z,17.04
2022-10-09T13:51:49.209Z,16.98
2022-10-09T13:52:49.232Z,16.93
2022-10-09T13:53:49.190Z,17.00
2022-10-09T13:54:49.225Z,16.98
2022-10-09T13:55:49.170Z,16.96
2022-10-09T13:56:49.163Z,16.85
2022-10-09T13:57:49.539Z,16.97
2022-10-09T13:58:49.144Z,16.93
2022-10-09T13:59:49.167Z,16.86
2022-10-09T14:00:49.136Z,16.78
2022-10-09T14:01:49.146Z,16.83
2022-10-09T14:02:49.102Z,16.78
2022-10-09T14:03:49.094Z,16.86
2022-10-09T14:04:49.097Z,16.76
2022-10-09T14:05:49.077Z,16.73
2022-10-09T14:06:49.095Z,16.71
2022-10-09T14:07:49.034Z,16.70
2022-10-09T14:08:49.031Z,16.68
2022-10-09T14:09:49.013Z,16.63
2022-10-09T14:10:49.008Z,16.79
2022-10-09T14:11:49.033Z,16.68
2022-10-09T14:12:49.239Z,16.76
2022-10-09T14:13:48.979Z,16.75
2022-10-09T14:14:48.968Z,16.71
2022-10-09T14:15:48.965Z,16.70
2022-10-09T14:16:48.957Z,16.64
2022-10-09T14:17:49.304Z,16.66
2022-10-09T14:18:48.926Z,16.58
2022-10-09T14:19:48.931Z,16.58
2022-10-09T14:20:48.902Z,16.61
2022-10-09T14:21:48.906Z,16.58
2022-10-09T14:22:49.245Z,16.66
2022-10-09T14:23:48.901Z,16.57
2022-10-09T14:24:48.861Z,16.64
2022-10-09T14:25:48.851Z,16.61
2022-10-09T14:26:51.618Z,16.58
2022-10-09T14:27:48.850Z,16.58
2022-10-09T14:28:48.911Z,16.61
2022-10-09T14:29:49.753Z,16.63
2022-10-09T14:30:48.793Z,16.58
2022-10-09T14:31:48.790Z,16.58
2022-10-09T14:32:49.156Z,16.66
2022-10-09T14:33:48.777Z,16.57
2022-10-09T14:34:48.776Z,16.58
2022-10-09T14:35:48.742Z,16.57
2022-10-09T14:36:48.733Z,16.58
2022-10-09T14:37:48.742Z,16.57
2022-10-09T14:38:48.734Z,16.57
2022-10-09T14:39:48.722Z,16.57
2022-10-09T14:40:48.690Z,16.58
2022-10-09T14:41:48.673Z,16.56
2022-10-09T14:42:48.915Z,16.53
2022-10-09T14:43:48.657Z,16.60
2022-10-09T14:44:48.662Z,16.57
2022-10-09T14:45:48.645Z,16.52
2022-10-09T14:46:48.626Z,16.49
2022-10-09T14:47:48.610Z,16.52
2022-10-09T14:48:48.617Z,16.50
2022-10-09T14:49:48.593Z,16.45
2022-10-09T14:50:48.602Z,16.33
2022-10-09T14:51:48.580Z,16.33
2022-10-09T14:52:48.862Z,16.42
2022-10-09T14:53:48.595Z,16.49
2022-10-09T14:54:48.536Z,16.45
2022-10-09T14:55:48.523Z,16.43
2022-10-09T14:56:48.517Z,16.45
2022-10-09T14:57:48.529Z,16.41
2022-10-09T14:58:48.517Z,16.41
2022-10-09T14:59:48.493Z,16.34
2022-10-09T15:00:48.476Z,16.34
2022-10-09T15:01:48.463Z,16.34
2022-10-09T15:02:48.452Z,16.35
2022-10-09T15:03:48.555Z,16.30
2022-10-09T15:04:48.467Z,16.28
2022-10-09T15:05:48.416Z,16.27
2022-10-09T15:06:48.431Z,16.31
2022-10-09T15:07:48.689Z,16.23
2022-10-09T15:08:48.387Z,16.21
2022-10-09T15:09:48.391Z,16.24
2022-10-09T15:10:48.383Z,16.21
2022-10-09T15:11:48.375Z,16.25
2022-10-09T15:12:48.345Z,16.24
2022-10-09T15:13:48.336Z,16.23
2022-10-09T15:14:48.326Z,16.20
2022-10-09T15:15:48.340Z,16.14
2022-10-09T15:16:48.301Z,16.14
2022-10-09T15:17:48.588Z,16.24
2022-10-09T15:18:48.292Z,16.23
2022-10-09T15:19:48.327Z,16.15
2022-10-09T15:20:48.291Z,16.14
2022-10-09T15:21:48.267Z,16.07
2022-10-09T15:22:48.246Z,16.05
2022-10-09T15:23:48.265Z,16.00
2022-10-09T15:24:48.251Z,15.94
2022-10-09T15:25:48.272Z,16.02
2022-10-09T15:26:48.225Z,16.01
2022-10-09T15:27:51.303Z,16.02
2022-10-09T15:28:49.179Z,15.97
2022-10-09T15:29:48.170Z,16.02
2022-10-09T15:30:48.165Z,16.04
2022-10-09T15:31:48.174Z,15.96
2022-10-09T15:32:48.190Z,15.93
2022-10-09T15:33:48.140Z,16.01
2022-10-09T15:34:48.127Z,15.93
2022-10-09T15:35:48.100Z,15.92
2022-10-09T15:36:48.104Z,15.93
2022-10-09T15:37:49.475Z,15.93
2022-10-09T15:38:48.069Z,16.05
2022-10-09T15:39:48.064Z,16.01
2022-10-09T15:40:48.049Z,15.90
2022-10-09T15:41:48.048Z,15.92
2022-10-09T15:42:48.344Z,15.92
2022-10-09T15:43:48.045Z,15.93
2022-10-09T15:44:48.007Z,15.89
2022-10-09T15:45:48.007Z,15.83
2022-10-09T15:46:47.984Z,15.89
2022-10-09T15:47:51.506Z,15.92
2022-10-09T15:48:47.983Z,15.87
2022-10-09T15:49:52.572Z,15.84
2022-10-09T15:50:48.948Z,15.83
2022-10-09T15:51:47.972Z,15.76
2022-10-09T15:52:48.227Z,15.86
2022-10-09T15:53:47.907Z,15.76
2022-10-09T15:54:47.922Z,15.72
2022-10-09T15:55:47.878Z,15.82
2022-10-09T15:56:47.912Z,15.78
2022-10-09T15:57:47.884Z,15.83
2022-10-09T15:58:47.862Z,15.78
2022-10-09T15:59:47.860Z,15.64
2022-10-09T16:00:47.858Z,15.75
2022-10-09T16:01:47.902Z,15.69
2022-10-09T16:02:48.188Z,15.65
2022-10-09T16:03:47.802Z,15.67
2022-10-09T16:04:47.783Z,15.60
2022-10-09T16:05:47.779Z,15.64
2022-10-09T16:06:47.767Z,15.54
2022-10-09T16:07:47.768Z,15.56
2022-10-09T16:08:47.798Z,15.57
2022-10-09T16:09:47.757Z,15.60
2022-10-09T16:10:49.026Z,15.56
2022-10-09T16:11:47.709Z,15.51
2022-10-09T16:12:48.063Z,15.49
2022-10-09T16:13:47.728Z,15.38
2022-10-09T16:14:47.681Z,15.39
2022-10-09T16:15:47.663Z,15.41
2022-10-09T16:16:47.674Z,15.36
2022-10-09T16:17:47.663Z,15.25
2022-10-09T16:18:47.642Z,15.29
2022-10-09T16:19:47.627Z,15.27
2022-10-09T16:20:47.606Z,15.20
2022-10-09T16:21:47.609Z,15.14
2022-10-09T16:22:47.999Z,15.16
2022-10-09T16:23:47.575Z,15.03
2022-10-09T16:24:47.595Z,15.11
2022-10-09T16:25:47.582Z,15.09
2022-10-09T16:26:47.574Z,15.02
2022-10-09T16:27:47.534Z,15.06
2022-10-09T16:28:47.655Z,15.13
2022-10-09T16:29:47.530Z,15.09
2022-10-09T16:30:47.501Z,15.01
2022-10-09T16:31:47.523Z,14.99
2022-10-09T16:32:47.849Z,15.02
2022-10-09T16:33:47.469Z,14.86
2022-10-09T16:34:47.464Z,14.94
2022-10-09T16:35:47.453Z,14.86
2022-10-09T16:36:47.469Z,14.89
2022-10-09T16:37:47.430Z,14.77
2022-10-09T16:38:47.417Z,14.75
2022-10-09T16:39:47.402Z,14.77
2022-10-09T16:41:02.977Z,14.72
2022-10-09T16:41:48.417Z,14.65
2022-10-09T16:42:47.623Z,14.64
2022-10-09T16:43:47.384Z,14.70
2022-10-09T16:44:47.376Z,14.68
2022-10-09T16:45:47.430Z,14.58
2022-10-09T16:46:47.350Z,14.51
2022-10-09T16:47:47.681Z,14.57
2022-10-09T16:48:47.306Z,14.61
2022-10-09T16:49:47.332Z,14.54
2022-10-09T16:50:47.314Z,14.57
2022-10-09T16:51:47.289Z,14.55
2022-10-09T16:52:47.272Z,14.51
2022-10-09T16:53:47.284Z,14.47
2022-10-09T16:54:47.248Z,14.50
2022-10-09T16:55:47.250Z,14.51
2022-10-09T16:56:47.224Z,14.43
2022-10-09T16:57:47.501Z,14.35
2022-10-09T16:58:56.843Z,14.37
2022-10-09T16:59:47.488Z,14.35
2022-10-09T17:00:47.218Z,14.29
2022-10-09T17:01:47.193Z,14.22
2022-10-09T17:02:47.154Z,14.33
2022-10-09T17:03:47.195Z,14.17
2022-10-09T17:04:47.313Z,14.22
2022-10-09T17:05:47.209Z,14.17
2022-10-09T17:06:47.157Z,14.33
2022-10-09T17:07:47.363Z,14.29
2022-10-09T17:08:47.093Z,14.27
2022-10-09T17:09:47.296Z,14.21
2022-10-09T17:10:47.095Z,14.22
2022-10-09T17:11:47.091Z,14.22
2022-10-09T17:12:47.108Z,14.24
2022-10-09T17:13:47.291Z,14.36
2022-10-09T17:14:47.091Z,14.20
2022-10-09T17:15:47.112Z,14.20
2022-10-09T17:16:47.017Z,14.21
2022-10-09T17:17:47.182Z,14.15
2022-10-09T17:18:47.076Z,14.15
2022-10-09T17:19:47.192Z,14.03
2022-10-09T17:20:47.107Z,13.99
2022-10-09T17:21:47.007Z,13.99
2022-10-09T17:22:47.362Z,13.96
2022-10-09T17:23:46.955Z,13.88
2022-10-09T17:24:46.978Z,13.85
2022-10-09T17:25:46.910Z,13.81
2022-10-09T17:26:46.975Z,13.81
2022-10-09T17:27:46.898Z,13.79
2022-10-09T17:28:46.915Z,13.87